createdAt,value
2018-09-25T00:01:01.534Z,5.10
2018-09-25T00:03:41.714Z,5.10
2018-09-25T00:06:22.617Z,5.10
2018-09-25T00:09:02.906Z,5.20
2018-09-25T00:11:43.130Z,5.20
2018-09-25T00:14:23.097Z,5.20
2018-09-25T00:17:02.995Z,5.30
2018-09-25T00:19:43.054Z,5.30
2018-09-25T00:22:22.898Z,5.20
2018-09-25T00:25:03.679Z,5.30
2018-09-25T00:27:43.860Z,5.30
2018-09-25T00:30:24.002Z,5.40
2018-09-25T00:33:04.338Z,5.50
2018-09-25T00:35:44.573Z,5.50
2018-09-25T00:38:24.734Z,5.50
2018-09-25T00:41:05.749Z,5.60
2018-09-25T00:43:45.802Z,5.50
2018-09-25T00:46:26.673Z,5.50
2018-09-25T00:49:06.720Z,5.50
2018-09-25T00:51:46.735Z,5.50
2018-09-25T00:54:26.791Z,5.40
2018-09-25T00:57:06.802Z,5.40
2018-09-25T00:59:47.133Z,5.30
2018-09-25T01:02:27.158Z,5.30
2018-09-25T01:05:06.940Z,5.30
2018-09-25T01:07:48.014Z,5.30
2018-09-25T01:10:28.182Z,5.30
2018-09-25T01:13:08.109Z,5.20
2018-09-25T01:15:48.249Z,5.10
2018-09-25T01:18:28.510Z,5.00
2018-09-25T01:21:09.609Z,5.00
2018-09-25T01:23:49.755Z,4.90
2018-09-25T01:26:29.621Z,4.80
2018-09-25T01:29:09.798Z,4.70
2018-09-25T01:31:50.330Z,4.80
2018-09-25T01:34:30.480Z,4.70
2018-09-25T01:37:10.419Z,4.70
2018-09-25T01:39:50.462Z,4.60
2018-09-25T01:42:30.322Z,4.50
2018-09-25T01:45:10.433Z,4.50
2018-09-25T01:47:50.883Z,4.50
2018-09-25T01:50:31.197Z,4.50
2018-09-25T01:53:11.241Z,4.50
2018-09-25T01:55:51.889Z,4.50
2018-09-25T01:58:32.078Z,4.40
2018-09-25T02:01:12.729Z,4.40
2018-09-25T02:03:52.936Z,4.30
2018-09-25T02:06:33.090Z,4.30
2018-09-25T02:09:13.407Z,4.10
2018-09-25T02:11:53.421Z,4.10
2018-09-25T02:14:33.407Z,4.00
2018-09-25T02:17:13.519Z,4.00
2018-09-25T02:19:53.400Z,3.80
2018-09-25T02:22:33.522Z,3.90
2018-09-25T02:25:14.349Z,3.90
2018-09-25T02:27:54.309Z,3.90
2018-09-25T02:30:34.295Z,3.90
2018-09-25T02:33:14.313Z,3.80
2018-09-25T02:35:54.548Z,3.90
2018-09-25T02:38:34.640Z,3.90
2018-09-25T02:41:15.030Z,3.90
2018-09-25T02:43:56.071Z,3.90
2018-09-25T02:46:36.234Z,3.70
2018-09-25T02:49:16.650Z,3.70
2018-09-25T02:51:56.622Z,3.70
2018-09-25T02:54:36.810Z,3.70
2018-09-25T02:57:16.813Z,3.60
2018-09-25T02:59:56.730Z,3.50
2018-09-25T03:02:37.645Z,3.40
2018-09-25T03:05:17.586Z,3.40
2018-09-25T03:07:57.535Z,3.30
2018-09-25T03:10:37.375Z,3.40
2018-09-25T03:13:17.669Z,3.40
2018-09-25T03:15:57.600Z,3.40
2018-09-25T03:18:37.491Z,3.40
2018-09-25T03:21:18.113Z,3.40
2018-09-25T03:23:58.199Z,3.40
2018-09-25T03:26:38.300Z,3.40
2018-09-25T03:29:19.384Z,3.30
2018-09-25T03:31:59.231Z,3.30
2018-09-25T03:34:39.706Z,3.20
2018-09-25T03:37:19.758Z,3.20
2018-09-25T03:39:59.999Z,3.20
2018-09-25T03:42:40.062Z,3.20
2018-09-25T03:45:20.263Z,3.10
2018-09-25T03:48:00.248Z,3.00
2018-09-25T03:50:40.685Z,3.00
2018-09-25T03:53:20.677Z,3.00
2018-09-25T03:56:00.654Z,3.00
2018-09-25T03:58:40.882Z,3.00
2018-09-25T04:01:20.934Z,3.00
2018-09-25T04:04:01.316Z,2.90
2018-09-25T04:06:42.320Z,2.90
2018-09-25T04:09:22.289Z,2.70
2018-09-25T04:12:02.384Z,2.70
2018-09-25T04:14:43.006Z,2.80
2018-09-25T04:17:22.894Z,2.80
2018-09-25T04:20:02.954Z,2.80
2018-09-25T04:22:43.368Z,2.80
2018-09-25T04:25:23.141Z,2.80
2018-09-25T04:28:03.065Z,2.80
2018-09-25T04:30:43.609Z,2.70
2018-09-25T04:33:23.732Z,2.50
2018-09-25T04:36:03.933Z,2.60
2018-09-25T04:38:44.213Z,2.60
2018-09-25T04:41:24.123Z,2.60
2018-09-25T04:44:04.014Z,2.60
2018-09-25T04:46:44.209Z,2.60
2018-09-25T04:49:24.265Z,2.60
2018-09-25T04:52:04.418Z,2.60
2018-09-25T04:54:44.213Z,2.60
2018-09-25T04:57:24.298Z,2.60
2018-09-25T05:00:04.333Z,2.60
2018-09-25T05:02:44.697Z,2.50
2018-09-25T05:05:25.058Z,2.40
2018-09-25T05:08:05.237Z,2.40
2018-09-25T05:10:46.188Z,2.50
2018-09-25T05:13:26.470Z,2.40
2018-09-25T05:16:06.693Z,2.50
2018-09-25T05:18:46.909Z,2.50
2018-09-25T05:21:27.013Z,2.50
2018-09-25T05:24:07.258Z,2.50
2018-09-25T05:26:47.554Z,2.60
2018-09-25T05:29:27.722Z,2.60
2018-09-25T05:32:07.933Z,2.60
2018-09-25T05:34:47.858Z,2.60
2018-09-25T05:37:28.544Z,2.70
2018-09-25T05:40:09.250Z,2.70
2018-09-25T05:42:49.662Z,2.80
2018-09-25T05:45:30.002Z,2.90
2018-09-25T05:48:10.104Z,3.00
2018-09-25T05:50:50.217Z,3.10
2018-09-25T05:53:30.485Z,3.20
2018-09-25T05:56:10.806Z,3.30
2018-09-25T05:58:50.826Z,3.30
2018-09-25T06:01:31.958Z,3.40
2018-09-25T06:04:12.049Z,3.50
2018-09-25T06:06:53.366Z,3.60
2018-09-25T06:09:33.701Z,3.70
2018-09-25T06:12:13.830Z,3.80
2018-09-25T06:14:54.334Z,3.90
2018-09-25T06:17:35.493Z,4.10
2018-09-25T06:20:15.722Z,4.20
2018-09-25T06:22:56.622Z,4.40
2018-09-25T06:25:37.086Z,4.40
2018-09-25T06:28:16.990Z,4.50
2018-09-25T06:30:57.155Z,4.50
2018-09-25T06:33:37.201Z,4.50
2018-09-25T06:36:17.361Z,4.60
2018-09-25T06:38:57.890Z,4.70
2018-09-25T06:41:37.925Z,4.80
2018-09-25T06:44:18.218Z,4.80
2018-09-25T06:46:58.134Z,4.90
2018-09-25T06:49:38.170Z,5.10
2018-09-25T06:52:18.743Z,5.20
2018-09-25T06:54:59.449Z,5.30
2018-09-25T06:57:39.954Z,5.50
2018-09-25T07:00:20.066Z,5.60
2018-09-25T07:03:00.087Z,5.70
2018-09-25T07:05:40.358Z,5.90
2018-09-25T07:08:20.650Z,6.10
2018-09-25T07:11:01.124Z,6.20
2018-09-25T07:13:41.470Z,6.40
2018-09-25T07:16:21.412Z,6.50
2018-09-25T07:19:01.655Z,6.70
2018-09-25T07:21:42.054Z,6.80
2018-09-25T07:24:21.981Z,6.90
2018-09-25T07:27:01.905Z,7.10
2018-09-25T07:29:42.014Z,7.30
2018-09-25T07:32:22.441Z,7.40
2018-09-25T07:35:02.662Z,7.60
2018-09-25T07:37:42.797Z,7.80
2018-09-25T07:40:22.842Z,7.90
2018-09-25T07:43:03.435Z,8.10
2018-09-25T07:45:44.165Z,8.30
2018-09-25T07:48:24.398Z,8.40
2018-09-25T07:51:04.515Z,8.60
2018-09-25T07:53:44.442Z,8.80
2018-09-25T07:56:24.374Z,9.10
2018-09-25T07:59:04.500Z,9.60
2018-09-25T08:01:45.597Z,10.10
2018-09-25T08:04:25.637Z,10.30
2018-09-25T08:07:06.030Z,10.70
2018-09-25T08:09:46.103Z,10.80
2018-09-25T08:12:26.119Z,11.10
2018-09-25T08:15:06.137Z,11.20
2018-09-25T08:17:45.958Z,11.40
2018-09-25T08:20:26.069Z,11.40
2018-09-25T08:23:06.822Z,11.40
2018-09-25T08:25:47.045Z,11.70
2018-09-25T08:28:27.250Z,11.30
2018-09-25T08:31:07.390Z,11.90
2018-09-25T08:33:47.434Z,11.90
2018-09-25T08:36:27.490Z,12.70
2018-09-25T08:39:07.678Z,12.70
2018-09-25T08:41:48.899Z,12.30
2018-09-25T08:44:29.006Z,12.70
2018-09-25T08:47:09.179Z,12.80
2018-09-25T08:49:49.989Z,13.20
2018-09-25T08:52:30.671Z,14.30
2018-09-25T08:55:11.823Z,13.50
2018-09-25T08:57:53.321Z,13.10
2018-09-25T09:00:33.890Z,13.70
2018-09-25T09:03:14.276Z,14.10
2018-09-25T09:05:54.699Z,13.00
2018-09-25T09:08:35.853Z,13.60
2018-09-25T09:11:16.611Z,13.50
2018-09-25T09:13:58.539Z,13.20
2018-09-25T09:16:39.179Z,14.00
2018-09-25T09:19:19.949Z,14.50
2018-09-25T09:22:00.358Z,14.50
2018-09-25T09:24:41.047Z,14.30
2018-09-25T09:27:21.542Z,14.60
2018-09-25T09:30:02.258Z,13.70
2018-09-25T09:32:43.589Z,14.70
2018-09-25T09:35:24.928Z,14.60
2018-09-25T09:38:05.762Z,14.30
2018-09-25T09:40:46.355Z,14.60
2018-09-25T09:43:26.677Z,15.30
2018-09-25T09:46:07.281Z,15.50
2018-09-25T09:48:47.969Z,16.50
2018-09-25T09:51:28.564Z,16.80
2018-09-25T09:54:10.449Z,19.00
2018-09-25T09:56:50.917Z,19.00
2018-09-25T09:59:31.522Z,16.10
2018-09-25T10:02:12.321Z,16.20
2018-09-25T10:04:53.110Z,16.70
2018-09-25T10:07:33.791Z,17.60
2018-09-25T10:10:14.441Z,16.60
2018-09-25T10:12:54.998Z,17.60
2018-09-25T10:15:35.709Z,16.60
2018-09-25T10:18:16.498Z,17.00
2018-09-25T10:20:57.207Z,16.50
2018-09-25T10:23:38.153Z,16.10
2018-09-25T10:26:19.070Z,16.60
2018-09-25T10:28:59.658Z,16.90
2018-09-25T10:31:39.998Z,18.20
2018-09-25T10:37:08.355Z,17.60
2018-09-25T10:39:48.913Z,17.00
2018-09-25T10:42:30.230Z,18.00
2018-09-25T10:45:11.972Z,19.10
2018-09-25T10:47:52.696Z,20.20
2018-09-25T10:50:33.148Z,20.00
2018-09-25T10:53:13.684Z,19.70
2018-09-25T10:55:54.541Z,19.60
2018-09-25T10:58:35.586Z,20.50
2018-09-25T11:01:16.383Z,20.60
2018-09-25T11:03:57.205Z,21.50
2018-09-25T11:06:37.882Z,21.30
2018-09-25T11:09:19.354Z,20.10
2018-09-25T11:12:00.116Z,20.00
2018-09-25T11:14:40.777Z,20.70
2018-09-25T11:17:21.613Z,20.00
2018-09-25T11:20:03.436Z,19.10
2018-09-25T11:22:43.893Z,18.50
2018-09-25T11:25:24.891Z,19.30
2018-09-25T11:28:05.987Z,19.90
2018-09-25T11:30:46.653Z,20.20
2018-09-25T11:33:27.231Z,20.90
2018-09-25T11:36:07.754Z,21.60
2018-09-25T11:38:47.982Z,22.30
2018-09-25T11:41:35.177Z,20.70
2018-09-25T11:44:15.935Z,21.70
2018-09-25T11:46:56.388Z,20.60
2018-09-25T11:49:37.004Z,20.50
2018-09-25T11:52:17.282Z,20.70
2018-09-25T11:54:57.468Z,20.70
2018-09-25T11:57:37.753Z,21.10
2018-09-25T12:00:17.933Z,21.40
2018-09-25T12:02:58.280Z,21.20
2018-09-25T12:05:38.468Z,20.90
2018-09-25T12:08:18.603Z,20.90
2018-09-25T12:10:59.212Z,20.80
2018-09-25T12:13:39.346Z,21.90
2018-09-25T12:16:19.782Z,22.90
2018-09-25T12:19:00.339Z,23.80
2018-09-25T12:21:40.422Z,21.70
2018-09-25T12:24:20.943Z,21.20
2018-09-25T12:27:01.386Z,22.40
2018-09-25T12:29:42.119Z,21.50
2018-09-25T12:32:23.256Z,22.60
2018-09-25T12:35:03.710Z,23.20
2018-09-25T12:37:44.029Z,21.70
2018-09-25T12:40:24.903Z,21.00
2018-09-25T12:43:05.370Z,20.70
2018-09-25T12:45:45.893Z,20.50
2018-09-25T12:48:26.571Z,21.90
2018-09-25T12:51:07.160Z,22.70
2018-09-25T12:53:47.405Z,23.00
2018-09-25T12:56:27.809Z,21.90
2018-09-25T12:59:08.041Z,22.80
2018-09-25T13:01:48.565Z,23.30
2018-09-25T13:04:29.306Z,23.90
2018-09-25T13:07:10.184Z,21.80
2018-09-25T13:09:50.679Z,22.70
2018-09-25T13:12:31.141Z,22.80
2018-09-25T13:15:11.300Z,21.70
2018-09-25T13:17:52.247Z,22.30
2018-09-25T13:20:32.831Z,24.00
2018-09-25T13:23:13.726Z,25.20
2018-09-25T13:25:53.894Z,25.40
2018-09-25T13:28:34.985Z,24.00
2018-09-25T13:31:16.825Z,22.30
2018-09-25T13:33:57.341Z,21.00
2018-09-25T13:36:38.425Z,21.30
2018-09-25T13:39:19.650Z,23.50
2018-09-25T13:42:00.258Z,21.30
2018-09-25T13:44:40.923Z,21.20
2018-09-25T13:47:21.356Z,21.50
2018-09-25T13:50:02.135Z,20.90
2018-09-25T13:52:42.550Z,21.50
2018-09-25T13:55:23.445Z,21.60
2018-09-25T13:58:03.953Z,20.10
2018-09-25T14:00:44.114Z,20.60
2018-09-25T14:03:24.836Z,21.50
2018-09-25T14:06:05.334Z,21.60
2018-09-25T14:08:45.925Z,21.30
2018-09-25T14:11:26.298Z,20.50
2018-09-25T14:14:06.798Z,19.40
2018-09-25T14:16:46.966Z,19.70
2018-09-25T14:19:27.517Z,19.60
2018-09-25T14:22:07.765Z,20.50
2018-09-25T14:24:48.130Z,20.60
2018-09-25T14:27:29.194Z,20.80
2018-09-25T14:30:09.713Z,21.90
2018-09-25T14:32:57.163Z,20.20
2018-09-25T14:35:37.351Z,20.10
2018-09-25T14:38:17.529Z,20.90
2018-09-25T14:40:58.670Z,20.90
2018-09-25T14:43:39.035Z,20.90
2018-09-25T14:46:19.808Z,20.80
2018-09-25T14:48:59.991Z,20.50
2018-09-25T14:51:40.313Z,20.20
2018-09-25T14:54:21.000Z,20.40
2018-09-25T14:57:01.585Z,20.90
2018-09-25T14:59:41.998Z,20.10
2018-09-25T15:02:22.444Z,20.90
2018-09-25T15:05:03.063Z,20.30
2018-09-25T15:07:43.207Z,19.30
2018-09-25T15:10:23.846Z,19.20
2018-09-25T15:13:05.041Z,21.50
2018-09-25T15:15:45.392Z,20.60
2018-09-25T15:18:25.607Z,20.90
2018-09-25T15:21:06.811Z,22.30
2018-09-25T15:23:47.498Z,21.90
2018-09-25T15:26:27.807Z,22.60
2018-09-25T15:29:08.173Z,21.00
2018-09-25T15:31:48.697Z,21.00
2018-09-25T15:34:29.289Z,19.50
2018-09-25T15:37:09.838Z,20.60
2018-09-25T15:39:50.173Z,20.00
2018-09-25T15:42:31.150Z,19.90
2018-09-25T15:45:11.982Z,18.20
2018-09-25T15:47:53.326Z,17.40
2018-09-25T15:50:34.312Z,16.70
2018-09-25T15:53:15.235Z,17.20
2018-09-25T15:55:56.809Z,16.50
2018-09-25T15:58:37.627Z,16.10
2018-09-25T16:01:18.271Z,16.40
2018-09-25T16:03:58.763Z,16.30
2018-09-25T16:06:39.465Z,16.40
2018-09-25T16:09:20.208Z,16.30
2018-09-25T16:12:01.072Z,15.90
2018-09-25T16:14:41.603Z,15.90
2018-09-25T16:17:22.326Z,15.90
2018-09-25T16:20:03.089Z,15.90
2018-09-25T16:22:43.646Z,16.20
2018-09-25T16:25:24.240Z,16.60
2018-09-25T16:28:05.050Z,16.80
2018-09-25T16:30:46.137Z,16.80
2018-09-25T16:33:26.698Z,16.00
2018-09-25T16:36:07.079Z,16.30
2018-09-25T16:38:48.205Z,16.50
2018-09-25T16:41:28.649Z,16.30
2018-09-25T16:44:09.582Z,15.80
2018-09-25T16:46:50.519Z,15.70
2018-09-25T16:49:31.265Z,15.20
2018-09-25T16:52:11.457Z,14.80
2018-09-25T16:54:51.573Z,14.10
2018-09-25T16:57:31.781Z,13.90
2018-09-25T17:00:12.233Z,13.70
2018-09-25T17:02:53.226Z,13.50
2018-09-25T17:05:34.104Z,13.30
2018-09-25T17:08:14.338Z,13.10
2018-09-25T17:10:54.493Z,13.10
2018-09-25T17:13:34.503Z,13.00
2018-09-25T17:16:15.247Z,12.80
2018-09-25T17:18:55.658Z,12.70
2018-09-25T17:21:36.397Z,12.80
2018-09-25T17:24:16.474Z,12.40
2018-09-25T17:26:56.607Z,12.60
2018-09-25T17:29:37.099Z,12.50
2018-09-25T17:32:17.584Z,12.50
2018-09-25T17:34:58.608Z,12.50
2018-09-25T17:37:38.860Z,12.30
2018-09-25T17:40:19.330Z,12.20
2018-09-25T17:43:00.515Z,12.30
2018-09-25T17:45:47.822Z,12.10
2018-09-25T17:48:28.706Z,12.00
2018-09-25T17:51:08.777Z,11.90
2018-09-25T17:53:49.114Z,12.00
2018-09-25T17:56:29.473Z,11.70
2018-09-25T17:59:09.826Z,11.60
2018-09-25T18:01:50.389Z,11.40
2018-09-25T18:04:30.865Z,11.50
2018-09-25T18:07:11.574Z,11.50
2018-09-25T18:09:52.489Z,11.40
2018-09-25T18:12:34.019Z,11.30
2018-09-25T18:15:13.950Z,11.30
2018-09-25T18:17:54.456Z,11.20
2018-09-25T18:20:35.374Z,11.10
2018-09-25T18:23:15.454Z,11.10
2018-09-25T18:25:55.846Z,11.20
2018-09-25T18:28:36.334Z,11.10
2018-09-25T18:31:16.953Z,10.90
2018-09-25T18:33:56.968Z,10.80
2018-09-25T18:36:37.338Z,11.00
2018-09-25T18:39:17.608Z,11.00
2018-09-25T18:41:57.873Z,11.00
2018-09-25T18:44:38.756Z,11.00
2018-09-25T18:47:19.317Z,10.90
2018-09-25T18:49:59.606Z,10.70
2018-09-25T18:52:39.760Z,10.70
2018-09-25T18:55:20.155Z,10.40
2018-09-25T18:58:00.180Z,10.30
2018-09-25T19:00:41.220Z,10.20
2018-09-25T19:03:21.253Z,10.10
2018-09-25T19:06:02.261Z,10.10
2018-09-25T19:08:43.197Z,10.10
2018-09-25T19:11:23.184Z,10.00
2018-09-25T19:14:03.625Z,10.10
2018-09-25T19:16:43.820Z,9.90
2018-09-25T19:19:23.776Z,9.90
2018-09-25T19:22:04.285Z,10.10
2018-09-25T19:24:44.679Z,10.00
2018-09-25T19:27:24.881Z,10.00
2018-09-25T19:30:05.600Z,9.90
2018-09-25T19:32:45.906Z,10.10
2018-09-25T19:35:26.196Z,9.90
2018-09-25T19:38:06.572Z,9.90
2018-09-25T19:40:46.909Z,9.80
2018-09-25T19:43:27.159Z,9.70
2018-09-25T19:46:07.300Z,9.70
2018-09-25T19:48:47.426Z,9.60
2018-09-25T19:51:28.297Z,9.50
2018-09-25T19:54:08.599Z,9.30
2018-09-25T19:56:48.717Z,9.40
2018-09-25T19:59:28.955Z,9.30
2018-09-25T20:02:09.340Z,9.10
2018-09-25T20:04:49.622Z,9.10
2018-09-25T20:07:29.742Z,8.90
2018-09-25T20:10:10.116Z,8.80
2018-09-25T20:12:50.669Z,8.90
2018-09-25T20:15:30.710Z,8.90
2018-09-25T20:18:10.838Z,8.80
2018-09-25T20:20:51.465Z,8.70
2018-09-25T20:23:32.346Z,8.70
2018-09-25T20:26:12.423Z,8.70
2018-09-25T20:28:52.749Z,8.60
2018-09-25T20:31:33.040Z,8.70
2018-09-25T20:34:13.139Z,8.70
2018-09-25T20:36:53.185Z,8.70
2018-09-25T20:39:34.199Z,8.70
2018-09-25T20:42:14.623Z,8.50
2018-09-25T20:44:55.002Z,8.60
2018-09-25T20:47:34.771Z,8.60
2018-09-25T20:50:14.772Z,8.50
2018-09-25T20:52:55.755Z,8.50
2018-09-25T20:55:43.870Z,8.50
2018-09-25T20:58:24.196Z,8.50
2018-09-25T21:01:04.536Z,8.20
2018-09-25T21:03:44.876Z,8.20
2018-09-25T21:06:29.966Z,8.20
2018-09-25T21:09:14.127Z,8.20
2018-09-25T21:11:54.096Z,8.10
2018-09-25T21:14:34.953Z,8.10
2018-09-25T21:17:15.398Z,8.20
2018-09-25T21:19:55.668Z,8.10
2018-09-25T21:22:35.512Z,8.10
2018-09-25T21:25:15.873Z,8.00
2018-09-25T21:27:55.733Z,8.00
2018-09-25T21:30:36.797Z,8.00
2018-09-25T21:33:16.713Z,7.80
2018-09-25T21:35:56.707Z,7.80
2018-09-25T21:38:36.834Z,7.80
2018-09-25T21:41:17.198Z,7.80
2018-09-25T21:43:57.354Z,7.80
2018-09-25T21:46:37.677Z,7.80
2018-09-25T21:49:17.592Z,7.90
2018-09-25T21:51:58.457Z,7.90
2018-09-25T21:54:38.860Z,7.90
2018-09-25T21:57:19.923Z,7.90
2018-09-25T22:00:00.869Z,7.90
2018-09-25T22:02:40.762Z,8.00
2018-09-25T22:05:21.020Z,8.00
2018-09-25T22:08:00.966Z,7.90
2018-09-25T22:10:40.841Z,7.90
2018-09-25T22:13:20.987Z,7.80
2018-09-25T22:16:00.930Z,7.90
2018-09-25T22:18:41.969Z,7.80
2018-09-25T22:21:21.977Z,7.80
2018-09-25T22:24:02.253Z,7.80
2018-09-25T22:26:42.497Z,7.70
2018-09-25T22:29:22.605Z,7.60
2018-09-25T22:32:02.915Z,7.50
2018-09-25T22:34:43.217Z,7.50
2018-09-25T22:37:25.534Z,7.50
2018-09-25T22:40:05.740Z,7.40
2018-09-25T22:42:45.762Z,7.50
2018-09-25T22:45:25.843Z,7.30
2018-09-25T22:48:06.000Z,7.50
2018-09-25T22:50:46.374Z,7.60
2018-09-25T22:53:26.633Z,7.50
2018-09-25T22:56:06.773Z,7.70
2018-09-25T22:58:46.873Z,7.60
2018-09-25T23:01:27.245Z,7.40
2018-09-25T23:04:07.428Z,7.50
2018-09-25T23:06:47.727Z,7.50
2018-09-25T23:09:28.227Z,7.50
2018-09-25T23:12:08.833Z,7.50
2018-09-25T23:14:48.968Z,7.50
2018-09-25T23:17:29.332Z,7.50
2018-09-25T23:20:10.235Z,7.50
2018-09-25T23:22:50.541Z,7.40
2018-09-25T23:25:30.841Z,7.40
2018-09-25T23:28:11.215Z,7.40
2018-09-25T23:30:51.352Z,7.30
2018-09-25T23:33:32.011Z,7.30
2018-09-25T23:36:12.580Z,7.40
2018-09-25T23:38:52.692Z,7.40
2018-09-25T23:41:32.514Z,7.50
2018-09-25T23:44:11.691Z,7.50
2018-09-25T23:46:54.353Z,7.50
2018-09-25T23:49:34.565Z,7.50
2018-09-25T23:52:20.442Z,7.50
2018-09-25T23:55:58.653Z,7.60
2018-09-25T23:58:36.538Z,7.50
